DEDAF EDFM-EDFZ
Flight info
| Callsign | DEDAF |
|---|---|
| Flight time | 0h 23m |
| Altitude | 6000 |
| Route | 4930N00828E DCT 4938N00823E DCT 4946N00825E 4953N00820E 4956N00821E DCT 4959N00815E |
| Aircraft | PA38/L-SDGRY/S |
Departure
| Time | 2026-04-27 16:44 |
|---|---|
| Airport | Mannheim-City Airport (EDFM) |
Arrival
| Time | 2026-04-27 17:07 |
|---|---|
| Airport | Mainz-Finthen Airfield (EDFZ) |
| Time | Latitude | Longitude | Altitude | Speed | Heading |
|---|---|---|---|---|---|
| 2026-04-27 16:35 | 49.47615 | 8.51935 | 316 ft | 0 kts | 181° |
| 2026-04-27 16:40 | 49.47614 | 8.51935 | 318 ft | 1 kts | 181° |
| 2026-04-27 16:40 | 49.47590 | 8.51947 | 318 ft | 6 kts | 104° |
| 2026-04-27 16:40 | 49.47587 | 8.52041 | 318 ft | 11 kts | 92° |
| 2026-04-27 16:41 | 49.47585 | 8.52120 | 318 ft | 6 kts | 96° |
| 2026-04-27 16:41 | 49.47543 | 8.52173 | 318 ft | 13 kts | 183° |
| 2026-04-27 16:41 | 49.47442 | 8.52163 | 318 ft | 16 kts | 183° |
| 2026-04-27 16:41 | 49.47348 | 8.52156 | 319 ft | 8 kts | 184° |
| 2026-04-27 16:42 | 49.47334 | 8.52155 | 318 ft | 0 kts | 175° |
| 2026-04-27 16:42 | 49.47304 | 8.52153 | 318 ft | 11 kts | 186° |
| 2026-04-27 16:43 | 49.47248 | 8.52099 | 318 ft | 13 kts | 271° |
| 2026-04-27 16:43 | 49.47262 | 8.51718 | 316 ft | 58 kts | 271° |
| 2026-04-27 16:43 | 49.47247 | 8.51077 | 458 ft | 59 kts | 273° |
| 2026-04-27 16:43 | 49.47238 | 8.50433 | 586 ft | 63 kts | 274° |
| 2026-04-27 16:44 | 49.47253 | 8.49783 | 765 ft | 62 kts | 273° |
| 2026-04-27 16:44 | 49.47250 | 8.49119 | 904 ft | 63 kts | 274° |
| 2026-04-27 16:44 | 49.47227 | 8.48417 | 1031 ft | 69 kts | 269° |
| 2026-04-27 16:44 | 49.47235 | 8.47652 | 1138 ft | 77 kts | 295° |
| 2026-04-27 16:45 | 49.47589 | 8.47011 | 1239 ft | 80 kts | 330° |
| 2026-04-27 16:45 | 49.48084 | 8.46547 | 1342 ft | 87 kts | 330° |
| 2026-04-27 16:45 | 49.48611 | 8.46118 | 1478 ft | 84 kts | 342° |
| 2026-04-27 16:45 | 49.49202 | 8.45820 | 1502 ft | 94 kts | 348° |
| 2026-04-27 16:46 | 49.49857 | 8.45547 | 1476 ft | 100 kts | 349° |
| 2026-04-27 16:46 | 49.50519 | 8.45179 | 1480 ft | 102 kts | 341° |
| 2026-04-27 16:46 | 49.51163 | 8.44758 | 1481 ft | 102 kts | 338° |
| 2026-04-27 16:46 | 49.51802 | 8.44288 | 1488 ft | 103 kts | 338° |
| 2026-04-27 16:47 | 49.52462 | 8.43850 | 1490 ft | 104 kts | 340° |
| 2026-04-27 16:47 | 49.53134 | 8.43432 | 1477 ft | 105 kts | 345° |
| 2026-04-27 16:47 | 49.53817 | 8.43049 | 1479 ft | 104 kts | 345° |
| 2026-04-27 16:47 | 49.54496 | 8.42759 | 1476 ft | 100 kts | 354° |
| 2026-04-27 16:48 | 49.55193 | 8.42697 | 1475 ft | 100 kts | 5° |
| 2026-04-27 16:48 | 49.55896 | 8.42741 | 1475 ft | 102 kts | 4° |
| 2026-04-27 16:48 | 49.56601 | 8.42911 | 1481 ft | 105 kts | 9° |
| 2026-04-27 16:49 | 49.58033 | 8.42680 | 1472 ft | 104 kts | 340° |
| 2026-04-27 16:49 | 49.58674 | 8.42159 | 1472 ft | 105 kts | 334° |
| 2026-04-27 16:49 | 49.59210 | 8.41348 | 1472 ft | 111 kts | 313° |
| 2026-04-27 16:49 | 49.59806 | 8.40685 | 1475 ft | 105 kts | 344° |
| 2026-04-27 16:50 | 49.60464 | 8.40222 | 1478 ft | 107 kts | 338° |
| 2026-04-27 16:50 | 49.61144 | 8.39755 | 1474 ft | 106 kts | 340° |
| 2026-04-27 16:50 | 49.61812 | 8.39315 | 1470 ft | 103 kts | 341° |
| 2026-04-27 16:50 | 49.62471 | 8.38897 | 1467 ft | 102 kts | 342° |
| 2026-04-27 16:51 | 49.63113 | 8.38484 | 1471 ft | 99 kts | 342° |
| 2026-04-27 16:51 | 49.63767 | 8.38443 | 1471 ft | 93 kts | 17° |
| 2026-04-27 16:51 | 49.64424 | 8.38613 | 1485 ft | 100 kts | 9° |
| 2026-04-27 16:51 | 49.65116 | 8.38790 | 1480 ft | 100 kts | 12° |
| 2026-04-27 16:52 | 49.65793 | 8.38957 | 1485 ft | 98 kts | 12° |
| 2026-04-27 16:52 | 49.66476 | 8.39118 | 1486 ft | 101 kts | 12° |
| 2026-04-27 16:52 | 49.67183 | 8.39300 | 1475 ft | 103 kts | 12° |
| 2026-04-27 16:52 | 49.67888 | 8.39475 | 1484 ft | 102 kts | 11° |
| 2026-04-27 16:53 | 49.68592 | 8.39651 | 1485 ft | 103 kts | 11° |
| 2026-04-27 16:53 | 49.69301 | 8.39831 | 1481 ft | 103 kts | 12° |
| 2026-04-27 16:53 | 49.70002 | 8.40007 | 1485 ft | 102 kts | 11° |
| 2026-04-27 16:53 | 49.70706 | 8.40182 | 1481 ft | 101 kts | 12° |
| 2026-04-27 16:54 | 49.71393 | 8.40350 | 1481 ft | 101 kts | 11° |
| 2026-04-27 16:54 | 49.72081 | 8.40525 | 1474 ft | 101 kts | 9° |
| 2026-04-27 16:54 | 49.72777 | 8.40696 | 1487 ft | 102 kts | 13° |
| 2026-04-27 16:54 | 49.73485 | 8.40876 | 1485 ft | 103 kts | 11° |
| 2026-04-27 16:55 | 49.74184 | 8.41053 | 1491 ft | 102 kts | 11° |
| 2026-04-27 16:55 | 49.74892 | 8.41231 | 1488 ft | 104 kts | 12° |
| 2026-04-27 16:55 | 49.75607 | 8.41408 | 1487 ft | 106 kts | 11° |
| 2026-04-27 16:55 | 49.76324 | 8.41588 | 1475 ft | 102 kts | 11° |
| 2026-04-27 16:56 | 49.77013 | 8.41459 | 1475 ft | 104 kts | 336° |
| 2026-04-27 16:56 | 49.77667 | 8.40959 | 1473 ft | 105 kts | 341° |
| 2026-04-27 16:56 | 49.78335 | 8.40502 | 1471 ft | 105 kts | 338° |
| 2026-04-27 16:56 | 49.78985 | 8.40013 | 1475 ft | 102 kts | 339° |
| 2026-04-27 16:57 | 49.79645 | 8.39552 | 1472 ft | 105 kts | 339° |
| 2026-04-27 16:57 | 49.80287 | 8.39102 | 1467 ft | 101 kts | 339° |
| 2026-04-27 16:57 | 49.80916 | 8.38644 | 1469 ft | 100 kts | 341° |
| 2026-04-27 16:57 | 49.81547 | 8.38187 | 1466 ft | 100 kts | 339° |
| 2026-04-27 16:58 | 49.82183 | 8.37717 | 1473 ft | 105 kts | 333° |
| 2026-04-27 16:58 | 49.82597 | 8.36755 | 1476 ft | 111 kts | 301° |
| 2026-04-27 16:58 | 49.82968 | 8.35707 | 1472 ft | 108 kts | 305° |
| 2026-04-27 16:58 | 49.83302 | 8.34696 | 1479 ft | 106 kts | 304° |
| 2026-04-27 16:59 | 49.83652 | 8.33686 | 1472 ft | 105 kts | 303° |
| 2026-04-27 16:59 | 49.83999 | 8.32707 | 1481 ft | 103 kts | 302° |
| 2026-04-27 16:59 | 49.84365 | 8.31729 | 1476 ft | 106 kts | 304° |
| 2026-04-27 16:59 | 49.84720 | 8.30729 | 1478 ft | 106 kts | 305° |
| 2026-04-27 17:00 | 49.85318 | 8.29044 | 1488 ft | 110 kts | 304° |
| 2026-04-27 17:00 | 49.85807 | 8.27638 | 1484 ft | 108 kts | 303° |
| 2026-04-27 17:00 | 49.86159 | 8.26682 | 1592 ft | 97 kts | 304° |
| 2026-04-27 17:01 | 49.86465 | 8.25788 | 1729 ft | 99 kts | 303° |
| 2026-04-27 17:01 | 49.86823 | 8.24788 | 1712 ft | 110 kts | 303° |
| 2026-04-27 17:01 | 49.87207 | 8.23734 | 1714 ft | 113 kts | 303° |
| 2026-04-27 17:01 | 49.87577 | 8.22698 | 1711 ft | 108 kts | 303° |
| 2026-04-27 17:02 | 49.87959 | 8.21692 | 1705 ft | 108 kts | 305° |
| 2026-04-27 17:02 | 49.88323 | 8.20653 | 1704 ft | 110 kts | 303° |
| 2026-04-27 17:02 | 49.88701 | 8.19619 | 1707 ft | 111 kts | 303° |
| 2026-04-27 17:02 | 49.89066 | 8.18572 | 1719 ft | 111 kts | 303° |
| 2026-04-27 17:03 | 49.89459 | 8.17541 | 1719 ft | 111 kts | 303° |
| 2026-04-27 17:03 | 49.89848 | 8.16512 | 1713 ft | 109 kts | 305° |
| 2026-04-27 17:03 | 49.90218 | 8.15477 | 1716 ft | 110 kts | 304° |
| 2026-04-27 17:03 | 49.90597 | 8.14424 | 1714 ft | 113 kts | 302° |
| 2026-04-27 17:04 | 49.91076 | 8.13557 | 1745 ft | 102 kts | 341° |
| 2026-04-27 17:04 | 49.91741 | 8.13706 | 1710 ft | 97 kts | 34° |
| 2026-04-27 17:04 | 49.92264 | 8.14410 | 1661 ft | 104 kts | 43° |
| 2026-04-27 17:04 | 49.92855 | 8.14895 | 1742 ft | 97 kts | 11° |
| 2026-04-27 17:05 | 49.93533 | 8.14948 | 1758 ft | 101 kts | 356° |
| 2026-04-27 17:05 | 49.94236 | 8.14836 | 1760 ft | 102 kts | 356° |
| 2026-04-27 17:05 | 49.94935 | 8.14966 | 1683 ft | 102 kts | 32° |
| 2026-04-27 17:05 | 49.95199 | 8.15531 | 1664 ft | 98 kts | 69° |
| 2026-04-27 17:06 | 49.95423 | 8.16814 | 1718 ft | 88 kts | 74° |
| 2026-04-27 17:06 | 49.95614 | 8.17769 | 1521 ft | 100 kts | 52° |
| 2026-04-27 17:06 | 49.96213 | 8.18289 | 1426 ft | 97 kts | 7° |
| 2026-04-27 17:06 | 49.96852 | 8.17878 | 1281 ft | 101 kts | 332° |
| 2026-04-27 17:07 | 49.97263 | 8.17094 | 1075 ft | 102 kts | 269° |
| 2026-04-27 17:07 | 49.97142 | 8.16147 | 970 ft | 77 kts | 258° |
| 2026-04-27 17:07 | 49.97016 | 8.15385 | 790 ft | 71 kts | 260° |
| 2026-04-27 17:07 | 49.96908 | 8.14745 | 758 ft | 45 kts | 250° |
| 2026-04-27 17:08 | 49.96886 | 8.14588 | 760 ft | 2 kts | 49° |
| 2026-04-27 17:08 | 49.96924 | 8.14632 | 760 ft | 10 kts | 14° |
| 2026-04-27 17:08 | 49.96954 | 8.14627 | 760 ft | 8 kts | 344° |
| 2026-04-27 17:08 | 49.97019 | 8.14593 | 760 ft | 8 kts | 348° |
| 2026-04-27 17:09 | 49.97054 | 8.14733 | 760 ft | 21 kts | 75° |
| 2026-04-27 17:09 | 49.97069 | 8.14804 | 760 ft | 6 kts | 68° |
| 2026-04-27 17:09 | 49.97073 | 8.14818 | 759 ft | 0 kts | 60° |
| 2026-04-27 17:10 | 49.97074 | 8.14821 | 759 ft | 3 kts | 61° |
| 2026-04-27 17:10 | 49.97089 | 8.14905 | 758 ft | 12 kts | 81° |
| 2026-04-27 17:11 | 49.97099 | 8.14962 | 760 ft | 4 kts | 61° |
| 2026-04-27 17:11 | 49.97110 | 8.14968 | 759 ft | 0 kts | 347° |
| 2026-04-27 17:11 | 49.97119 | 8.14965 | 760 ft | 6 kts | 347° |
| 2026-04-27 17:12 | 49.97136 | 8.14926 | 759 ft | 0 kts | 249° |